createdAt,value
2022-10-01T00:06:40.630Z,40.10
2022-10-01T00:13:23.604Z,38.90
2022-10-01T00:20:13.970Z,40.60
2022-10-01T00:26:57.272Z,39.60
2022-10-01T00:33:40.080Z,39.60
2022-10-01T00:40:22.984Z,40.80
2022-10-01T00:47:20.462Z,42.40
2022-10-01T00:54:03.411Z,39.70
2022-10-01T01:00:46.282Z,40.60
2022-10-01T01:07:32.118Z,44.40
2022-10-01T01:14:23.704Z,44.50
2022-10-01T01:35:18.319Z,50.10
2022-10-01T01:42:02.354Z,56.20
2022-10-01T01:48:45.461Z,54.00
2022-10-01T01:55:27.213Z,53.00
2022-10-01T02:02:18.948Z,55.00
2022-10-01T02:09:09.100Z,50.00
2022-10-01T02:16:03.670Z,49.40
2022-10-01T02:22:55.385Z,49.10
2022-10-01T02:29:38.164Z,47.70
2022-10-01T02:36:20.895Z,50.30
2022-10-01T02:43:05.463Z,45.60
2022-10-01T02:49:47.998Z,46.50
2022-10-01T02:56:31.194Z,44.70
2022-10-01T03:03:13.862Z,49.00
2022-10-01T03:09:56.597Z,62.50
2022-10-01T03:16:39.381Z,45.30
2022-10-01T03:23:22.151Z,49.50
2022-10-01T03:30:05.059Z,51.80
2022-10-01T03:36:47.717Z,48.70
2022-10-01T03:43:30.506Z,45.40
2022-10-01T03:50:13.217Z,47.20
2022-10-01T03:56:55.808Z,49.60
2022-10-01T04:03:38.604Z,47.00
2022-10-01T04:10:21.380Z,49.30
2022-10-01T04:17:04.797Z,46.80
2022-10-01T04:23:47.662Z,46.20
2022-10-01T04:30:30.634Z,48.70
2022-10-01T04:37:13.548Z,42.60
2022-10-01T04:43:56.142Z,39.80
2022-10-01T04:50:38.622Z,37.40
2022-10-01T04:57:21.464Z,43.20
2022-10-01T05:04:04.321Z,40.50
2022-10-01T05:10:47.237Z,41.10
2022-10-01T05:17:30.028Z,37.40
2022-10-01T05:24:12.562Z,36.20
2022-10-01T05:30:55.279Z,41.10
2022-10-01T05:37:37.648Z,43.60
2022-10-01T05:44:20.442Z,40.60
2022-10-01T05:50:02.908Z,43.10
2022-10-01T05:55:37.640Z,39.40
2022-10-01T06:01:43.320Z,41.40
2022-10-01T06:08:25.755Z,41.00
2022-10-01T06:15:08.517Z,40.60
2022-10-01T06:21:51.341Z,36.30
2022-10-01T06:28:34.021Z,39.30
2022-10-01T06:35:17.317Z,39.50
2022-10-01T06:42:00.701Z,38.50
2022-10-01T06:48:45.656Z,39.40
2022-10-01T06:55:28.434Z,39.80
2022-10-01T07:02:15.121Z,41.10
2022-10-01T07:08:59.167Z,39.30
2022-10-01T07:15:46.155Z,40.60
2022-10-01T07:22:29.208Z,41.80
2022-10-01T07:29:15.023Z,38.40
2022-10-01T07:35:57.975Z,39.40
2022-10-01T07:42:40.235Z,35.30
2022-10-01T07:49:23.064Z,35.00
2022-10-01T07:54:52.893Z,37.50
2022-10-01T08:01:15.566Z,36.20
2022-10-01T08:07:59.531Z,39.70
2022-10-01T08:13:42.759Z,35.10
2022-10-01T08:19:04.742Z,36.70
2022-10-01T08:24:27.103Z,37.40
2022-10-01T08:30:29.823Z,29.60
2022-10-01T08:36:33.697Z,33.10
2022-10-01T08:43:15.419Z,32.40
2022-10-01T08:50:04.121Z,32.50
2022-10-01T08:56:08.407Z,35.00
2022-10-01T09:02:00.868Z,32.20
2022-10-01T09:08:38.063Z,29.50
2022-10-01T09:14:47.486Z,34.20
2022-10-01T09:20:40.292Z,29.80
2022-10-01T09:27:03.686Z,30.70
2022-10-01T09:33:52.412Z,30.20
2022-10-01T09:40:17.554Z,30.10
2022-10-01T09:46:42.828Z,30.30
2022-10-01T09:52:22.732Z,27.10
2022-10-01T09:58:29.240Z,27.40
2022-10-01T10:03:59.210Z,27.00
2022-10-01T10:14:59.109Z,28.90
2022-10-01T10:20:25.383Z,31.30
2022-10-01T10:26:07.504Z,29.50
2022-10-01T10:32:30.147Z,28.50
2022-10-01T10:38:52.833Z,23.50
2022-10-01T10:45:35.232Z,21.80
2022-10-01T10:52:23.453Z,25.00
2022-10-01T10:59:11.757Z,22.70
2022-10-01T11:05:54.250Z,19.20
2022-10-01T11:12:47.159Z,20.70
2022-10-01T11:19:26.732Z,15.90
2022-10-01T11:26:13.704Z,16.10
2022-10-01T11:32:37.374Z,15.60
2022-10-01T11:39:20.431Z,14.40
2022-10-01T11:46:14.220Z,13.90
2022-10-01T11:53:02.296Z,13.30
2022-10-01T12:00:14.067Z,13.60
2022-10-01T12:06:57.063Z,16.00
2022-10-01T12:13:40.741Z,11.10
2022-10-01T12:20:26.657Z,13.40
2022-10-01T12:27:16.359Z,12.70
2022-10-01T12:34:10.052Z,13.10
2022-10-01T12:41:23.109Z,15.30
2022-10-01T12:48:25.165Z,10.60
2022-10-01T13:49:21.229Z,30.40
2022-10-01T13:56:04.500Z,9.00
2022-10-01T14:03:02.706Z,10.10
2022-10-01T14:09:46.197Z,10.40
2022-10-01T14:16:47.336Z,11.10
2022-10-01T14:23:30.068Z,9.00
2022-10-01T14:30:18.750Z,9.90
2022-10-01T14:37:16.225Z,12.90
2022-10-01T14:44:07.332Z,11.30
2022-10-01T14:50:50.184Z,14.30
2022-10-01T14:57:34.106Z,13.20
2022-10-01T15:04:20.277Z,10.50
2022-10-01T15:11:06.485Z,13.10
2022-10-01T15:17:49.962Z,11.10
2022-10-01T15:24:32.950Z,12.80
2022-10-01T15:31:16.133Z,14.10
2022-10-01T15:37:58.912Z,18.80
2022-10-01T15:44:47.479Z,13.30
2022-10-01T15:57:56.166Z,14.90
2022-10-01T16:04:41.696Z,16.80
2022-10-01T16:11:31.665Z,15.20
2022-10-01T16:18:20.476Z,16.50
2022-10-01T16:25:09.384Z,14.50
2022-10-01T16:31:52.299Z,14.30
2022-10-01T16:38:36.326Z,17.80
2022-10-01T16:45:21.357Z,18.00
2022-10-01T16:52:04.412Z,21.30
2022-10-01T16:58:49.731Z,24.30
2022-10-01T17:05:32.563Z,21.60
2022-10-01T17:12:16.821Z,25.30
2022-10-01T17:18:59.630Z,38.90
2022-10-01T17:25:42.983Z,27.10
2022-10-01T17:32:27.263Z,26.50
2022-10-01T17:39:10.106Z,23.00
2022-10-01T17:45:53.126Z,25.20
2022-10-01T17:52:36.309Z,27.40
2022-10-01T17:59:19.401Z,22.50
2022-10-01T18:06:04.521Z,19.20
2022-10-01T18:12:47.559Z,16.50
2022-10-01T18:26:39.408Z,8.60
2022-10-01T18:33:23.415Z,9.30
2022-10-01T18:40:12.711Z,8.80
2022-10-01T18:46:59.678Z,6.50
2022-10-01T18:53:45.052Z,5.90
2022-10-01T19:00:43.908Z,7.00
2022-10-01T19:34:17.289Z,10.40
2022-10-01T19:41:16.158Z,11.00
2022-10-01T19:48:08.995Z,11.90
2022-10-01T19:54:56.197Z,12.00
2022-10-01T20:08:11.517Z,9.60
2022-10-01T20:15:08.672Z,9.10
2022-10-01T20:22:07.233Z,10.00
2022-10-01T20:29:08.354Z,10.70
2022-10-01T20:35:57.067Z,7.70
2022-10-01T20:56:13.588Z,8.80
2022-10-01T21:03:12.636Z,11.60
2022-10-01T21:09:58.907Z,14.70
2022-10-01T21:16:57.104Z,11.40
2022-10-01T21:30:30.016Z,11.40
2022-10-01T22:38:41.550Z,12.90
2022-10-01T22:45:24.636Z,11.90
2022-10-01T22:52:20.230Z,11.00
2022-10-01T22:59:21.938Z,11.30
2022-10-01T23:06:18.143Z,11.00
2022-10-01T23:47:23.799Z,8.90
2022-10-01T23:54:37.972Z,8.80
